Time;durP1;ratioP1;P1;durP2;ratioP2;P2;SDS_P1;SDS_P2;PMS_P1;PMS_P2;Temp;Humidity;BMP_temperature;BMP_pressure;BME280_temperature;BME280_humidity;BME280_pressure;Samples;Min_cycle;Max_cycle;Signal;HPM_P1;HPM_P2
2022/12/01 00:00:14;;;;;;;7.27;5.77;;;4.70;99.90;;;;;;4919687;29;20598;-82
2022/12/01 00:02:39;;;;;;;6.40;5.80;;;4.80;99.90;;;;;;4936898;29;20551;-84
2022/12/01 00:05:05;;;;;;;6.97;6.10;;;4.80;99.90;;;;;;4923593;29;20182;-84
2022/12/01 00:07:31;;;;;;;6.43;5.83;;;4.80;99.90;;;;;;4921407;29;20188;-83
2022/12/01 00:12:42;;;;;;;7.03;6.00;;;4.80;99.90;;;;;;4942578;29;20266;-81
2022/12/01 00:15:10;;;;;;;6.60;5.90;;;4.90;99.90;;;;;;4928060;29;20192;-82
2022/12/01 00:17:36;;;;;;;6.03;5.47;;;4.90;99.90;;;;;;4937012;29;20177;-82
2022/12/01 00:20:06;;;;;;;6.30;5.70;;;4.90;99.90;;;;;;4947056;29;20186;-80
2022/12/01 00:22:32;;;;;;;6.00;5.40;;;4.90;99.90;;;;;;4955723;29;20181;-83
2022/12/01 00:24:58;;;;;;;6.90;5.70;;;4.90;99.90;;;;;;4956320;29;20203;-81
2022/12/01 00:27:23;;;;;;;5.73;5.23;;;4.80;99.90;;;;;;4944773;29;20226;-81
2022/12/01 00:29:49;;;;;;;6.27;5.63;;;4.80;99.90;;;;;;4938058;29;20547;-81
2022/12/01 00:32:15;;;;;;;8.30;6.07;;;4.80;99.90;;;;;;4936434;29;20210;-82
2022/12/01 00:34:40;;;;;;;6.93;5.53;;;4.70;99.90;;;;;;4936239;29;20583;-81
2022/12/01 00:37:06;;;;;;;7.47;6.10;;;4.70;99.90;;;;;;4936448;29;20242;-80
2022/12/01 00:39:32;;;;;;;6.00;5.40;;;4.70;99.90;;;;;;4936546;29;20177;-79
2022/12/01 00:41:58;;;;;;;6.57;5.40;;;4.70;99.90;;;;;;4936200;29;20543;-78
2022/12/01 00:44:23;;;;;;;5.90;5.37;;;4.70;99.90;;;;;;4918887;29;20186;-82
2022/12/01 00:46:49;;;;;;;7.63;5.50;;;4.80;99.90;;;;;;4919546;29;20187;-79
2022/12/01 00:49:15;;;;;;;6.00;5.20;;;4.80;99.90;;;;;;4936998;29;20591;-81
2022/12/01 00:51:41;;;;;;;5.80;5.10;;;4.80;99.90;;;;;;4937993;29;20287;-81
2022/12/01 00:54:06;;;;;;;6.33;5.73;;;4.80;99.90;;;;;;4938100;29;20216;-80
2022/12/01 00:56:32;;;;;;;6.93;5.50;;;4.90;99.90;;;;;;4936362;29;20180;-84
2022/12/01 00:58:58;;;;;;;6.53;5.53;;;4.90;99.90;;;;;;4918740;29;20545;-81
2022/12/01 01:01:24;;;;;;;7.23;5.90;;;4.90;99.90;;;;;;4937303;29;20202;-84
2022/12/01 01:03:49;;;;;;;6.03;5.17;;;5.00;99.90;;;;;;4937703;29;20578;-83
2022/12/01 01:06:15;;;;;;;6.93;5.50;;;4.90;99.90;;;;;;4937013;29;20185;-84
2022/12/01 01:08:41;;;;;;;6.80;5.73;;;4.90;99.90;;;;;;4935729;29;20177;-82
2022/12/01 01:11:08;;;;;;;6.53;5.80;;;4.80;99.90;;;;;;4935449;29;20256;-83
2022/12/01 01:13:34;;;;;;;6.27;5.33;;;4.80;99.90;;;;;;4935932;29;20263;-82
2022/12/01 01:16:06;;;;;;;5.60;5.10;;;4.80;99.90;;;;;;4935818;29;20307;-83
2022/12/01 01:18:32;;;;;;;5.73;5.13;;;4.90;99.90;;;;;;4935562;29;20654;-82
2022/12/01 01:21:02;;;;;;;6.33;5.73;;;4.90;99.90;;;;;;4935635;29;20179;-81
2022/12/01 01:23:28;;;;;;;7.10;5.30;;;4.90;99.90;;;;;;4935649;29;20171;-82
2022/12/01 01:26:00;;;;;;;6.17;5.30;;;4.80;99.90;;;;;;4935615;29;20179;-81
2022/12/01 01:28:26;;;;;;;5.90;5.30;;;4.70;99.90;;;;;;4934971;29;20183;-82
2022/12/01 01:30:52;;;;;;;5.47;4.93;;;4.70;99.90;;;;;;4917813;29;20179;-81
2022/12/01 01:33:17;;;;;;;6.97;5.00;;;4.70;99.90;;;;;;4936108;29;20212;-83
2022/12/01 01:35:43;;;;;;;6.37;5.77;;;4.70;99.90;;;;;;4941940;29;20172;-83
2022/12/01 01:38:10;;;;;;;7.17;6.00;;;4.80;99.90;;;;;;4942108;29;20710;-82
2022/12/01 01:40:45;;;;;;;7.37;5.67;;;4.80;99.90;;;;;;4938458;29;20171;-83
2022/12/01 01:43:16;;;;;;;5.93;5.30;;;4.80;99.90;;;;;;4937682;29;20203;-83
2022/12/01 01:45:42;;;;;;;6.73;5.30;;;4.80;99.90;;;;;;4943780;29;20218;-81
2022/12/01 01:48:10;;;;;;;5.87;5.27;;;4.80;99.90;;;;;;4949861;29;20179;-82
2022/12/01 01:50:36;;;;;;;6.80;5.47;;;4.70;99.90;;;;;;4937285;29;20267;-83
2022/12/01 01:53:07;;;;;;;6.13;5.33;;;4.70;99.90;;;;;;4919386;29;20339;-84
2022/12/01 01:55:34;;;;;;;6.57;5.63;;;4.60;99.90;;;;;;4936000;29;20207;-84
2022/12/01 01:58:03;;;;;;;5.90;5.30;;;4.60;99.90;;;;;;4919376;29;20199;-83
2022/12/01 02:00:29;;;;;;;6.00;5.03;;;4.70;99.90;;;;;;4935009;29;20289;-82
2022/12/01 02:02:56;;;;;;;5.83;5.13;;;4.70;99.90;;;;;;4935674;29;20240;-82
2022/12/01 02:05:24;;;;;;;5.63;5.13;;;4.70;99.90;;;;;;4935509;29;20187;-84
2022/12/01 02:07:54;;;;;;;5.87;5.27;;;4.80;99.90;;;;;;4918094;29;20194;-83
2022/12/01 02:10:21;;;;;;;6.67;5.40;;;4.80;99.90;;;;;;4935008;29;20544;-85
2022/12/01 02:13:16;;;;;;;7.20;5.33;;;4.90;99.90;;;;;;4935164;29;20203;-83
2022/12/01 02:15:46;;;;;;;6.53;5.73;;;4.80;99.90;;;;;;4935439;29;20194;-84
2022/12/01 02:18:21;;;;;;;5.93;5.33;;;4.80;99.90;;;;;;4935450;29;20657;-83
2022/12/01 02:21:05;;;;;;;6.20;5.23;;;4.80;99.90;;;;;;4934942;29;20183;-82
2022/12/01 02:23:46;;;;;;;5.83;5.23;;;4.90;99.90;;;;;;4938096;29;20177;-84
2022/12/01 02:26:54;;;;;;;6.03;5.43;;;4.80;99.90;;;;;;4935507;29;20164;-82
2022/12/01 02:29:38;;;;;;;6.77;5.50;;;4.90;99.90;;;;;;4926254;29;20558;-83
2022/12/01 02:32:25;;;;;;;7.40;4.97;;;4.80;99.90;;;;;;4935741;29;20203;-81
2022/12/01 02:34:58;;;;;;;5.60;4.77;;;4.80;99.90;;;;;;4936698;29;20168;-80
2022/12/01 02:37:42;;;;;;;5.10;4.70;;;4.70;99.90;;;;;;4936592;29;20168;-83
2022/12/01 02:40:22;;;;;;;5.10;4.60;;;4.70;99.90;;;;;;4939165;29;20163;-83
2022/12/01 02:43:11;;;;;;;5.63;4.67;;;4.70;99.90;;;;;;4939379;29;20172;-82
2022/12/01 02:45:53;;;;;;;4.40;4.00;;;4.60;99.90;;;;;;4921638;29;20645;-83
2022/12/01 02:48:27;;;;;;;4.73;4.30;;;4.60;99.90;;;;;;4939877;29;20165;-83
2022/12/01 02:50:56;;;;;;;4.13;3.73;;;4.60;99.90;;;;;;4942536;29;20182;-82
2022/12/01 02:53:22;;;;;;;5.33;4.70;;;4.60;99.90;;;;;;4938731;29;20204;-83
2022/12/01 02:55:52;;;;;;;4.23;3.87;;;4.60;99.90;;;;;;4938334;29;20294;-83
2022/12/01 02:58:19;;;;;;;4.37;3.97;;;4.50;99.90;;;;;;4938220;29;20216;-79
2022/12/01 03:01:01;;;;;;;4.70;4.23;;;4.50;99.90;;;;;;4938145;29;20258;-82
2022/12/01 03:03:32;;;;;;;4.53;4.13;;;4.50;99.90;;;;;;4938238;29;20205;-84
2022/12/01 03:06:19;;;;;;;4.60;4.20;;;4.50;99.90;;;;;;4938327;29;20156;-84
2022/12/01 03:09:13;;;;;;;4.07;3.70;;;4.50;99.90;;;;;;4937880;29;20183;-83
2022/12/01 03:12:00;;;;;;;4.17;3.73;;;4.50;99.90;;;;;;4907956;29;20247;-82
2022/12/01 03:14:41;;;;;;;4.00;3.70;;;4.50;99.90;;;;;;4942251;29;20184;-83
2022/12/01 03:17:14;;;;;;;3.77;3.47;;;4.40;99.90;;;;;;4951719;29;20199;-84
2022/12/01 03:20:21;;;;;;;3.87;3.57;;;4.30;99.90;;;;;;4939501;29;20176;-83
2022/12/01 03:22:58;;;;;;;3.70;3.40;;;4.40;99.90;;;;;;4942594;29;20180;-82
2022/12/01 03:25:25;;;;;;;3.70;3.40;;;4.40;99.90;;;;;;4948232;29;20242;-85
2022/12/01 03:27:55;;;;;;;3.97;3.63;;;4.30;99.90;;;;;;4939093;29;20207;-82
2022/12/01 03:30:23;;;;;;;5.23;3.33;;;4.40;99.90;;;;;;4938304;29;20173;-84
2022/12/01 03:32:57;;;;;;;3.60;3.30;;;4.40;99.90;;;;;;4938292;29;20213;-83
2022/12/01 03:35:30;;;;;;;4.07;3.73;;;4.50;99.90;;;;;;4944517;29;20170;-79
2022/12/01 03:38:06;;;;;;;3.37;3.17;;;4.40;99.90;;;;;;4959741;29;20170;-83
2022/12/01 03:40:35;;;;;;;3.43;3.20;;;4.40;99.90;;;;;;4948355;29;20171;-83
2022/12/01 03:43:06;;;;;;;3.37;3.00;;;4.50;99.90;;;;;;4937926;29;20177;-84
2022/12/01 03:45:45;;;;;;;3.50;3.20;;;4.50;99.90;;;;;;4937840;29;20631;-84
2022/12/01 03:48:10;;;;;;;3.10;2.90;;;4.50;99.90;;;;;;4937393;29;20231;-82
2022/12/01 03:50:58;;;;;;;3.40;3.10;;;4.40;99.90;;;;;;4937344;29;20650;-82
2022/12/01 03:53:31;;;;;;;5.07;3.00;;;4.30;99.90;;;;;;4936626;29;20234;-83
2022/12/01 03:56:01;;;;;;;3.43;3.23;;;4.40;99.90;;;;;;4937117;29;20208;-83
2022/12/01 03:58:39;;;;;;;3.73;3.00;;;4.40;99.90;;;;;;4937405;29;20198;-82
2022/12/01 04:01:07;;;;;;;2.87;2.67;;;4.40;99.90;;;;;;4942417;29;20244;-82
2022/12/01 04:03:33;;;;;;;3.30;3.00;;;4.30;99.90;;;;;;4943187;29;20169;-84
2022/12/01 04:05:59;;;;;;;3.57;3.27;;;4.30;99.90;;;;;;4937291;29;20183;-82
2022/12/01 04:08:25;;;;;;;3.27;3.03;;;4.40;99.90;;;;;;4937173;29;20178;-84
2022/12/01 04:10:51;;;;;;;3.30;3.10;;;4.50;99.90;;;;;;4936938;29;20192;-85
2022/12/01 04:13:24;;;;;;;3.20;3.00;;;4.50;99.90;;;;;;4936861;29;20682;-82
2022/12/01 04:15:53;;;;;;;2.90;2.70;;;4.50;99.90;;;;;;4937817;29;20164;-82
2022/12/01 04:18:19;;;;;;;3.57;3.27;;;4.50;99.90;;;;;;4939100;29;20182;-84
2022/12/01 04:20:47;;;;;;;3.67;3.37;;;4.50;99.90;;;;;;4936811;29;20579;-80
2022/12/01 04:25:59;;;;;;;4.43;4.10;;;4.70;99.90;;;;;;4934936;29;20420;-82
2022/12/01 04:28:25;;;;;;;3.90;3.60;;;4.70;99.90;;;;;;4919378;29;20198;-84
2022/12/01 04:30:51;;;;;;;3.97;3.50;;;4.60;99.90;;;;;;4936466;29;20641;-81
2022/12/01 04:33:16;;;;;;;3.93;3.63;;;4.50;99.90;;;;;;4938828;29;20215;-82
2022/12/01 04:35:42;;;;;;;3.23;3.03;;;4.40;99.90;;;;;;4938109;29;20223;-83
2022/12/01 04:38:08;;;;;;;3.77;3.47;;;4.50;99.90;;;;;;4936586;29;20264;-85
2022/12/01 04:40:34;;;;;;;3.60;3.30;;;4.50;99.90;;;;;;4919457;29;20173;-84
2022/12/01 04:42:59;;;;;;;3.40;3.10;;;4.50;99.90;;;;;;4936644;29;20179;-85
2022/12/01 04:45:25;;;;;;;4.53;4.07;;;4.40;99.90;;;;;;4936974;29;20178;-83
2022/12/01 04:47:52;;;;;;;3.10;2.90;;;4.30;99.90;;;;;;4936755;29;20176;-83
2022/12/01 04:50:17;;;;;;;3.47;3.17;;;4.30;99.90;;;;;;4919378;29;20560;-83
2022/12/01 04:52:43;;;;;;;3.20;3.00;;;4.30;99.90;;;;;;4946077;29;20211;-82
2022/12/01 04:55:09;;;;;;;3.43;3.13;;;4.40;99.90;;;;;;4943129;29;20168;-84
2022/12/01 04:57:35;;;;;;;3.10;2.90;;;4.40;99.90;;;;;;4936553;29;20581;-84
2022/12/01 05:00:01;;;;;;;4.20;3.17;;;4.40;99.90;;;;;;4935892;29;20300;-84
2022/12/01 05:02:27;;;;;;;3.03;2.83;;;4.30;99.90;;;;;;4936139;29;20548;-84
2022/12/01 05:04:53;;;;;;;3.13;2.93;;;4.20;99.90;;;;;;4935768;29;20234;-84
2022/12/01 05:07:18;;;;;;;3.83;3.53;;;4.20;99.90;;;;;;4930757;29;20192;-79
2022/12/01 05:09:44;;;;;;;5.17;3.53;;;4.20;99.90;;;;;;4935775;29;20637;-83
2022/12/01 05:12:10;;;;;;;3.80;3.40;;;4.10;99.90;;;;;;4935707;29;20695;-82
2022/12/01 05:14:35;;;;;;;3.20;2.93;;;4.10;99.90;;;;;;4936308;29;20218;-82
2022/12/01 05:17:01;;;;;;;3.87;3.43;;;4.10;99.90;;;;;;4920355;29;20191;-83
2022/12/01 05:22:11;;;;;;;2.93;2.83;;;3.90;99.90;;;;;;4936840;29;20174;-84
2022/12/01 05:24:37;;;;;;;4.67;3.37;;;3.90;99.90;;;;;;4937600;29;20621;-81
2022/12/01 05:27:03;;;;;;;4.57;3.63;;;3.90;99.90;;;;;;4945182;29;20679;-82
2022/12/01 05:29:31;;;;;;;4.27;3.87;;;4.00;99.90;;;;;;4922753;29;20222;-82
2022/12/01 05:31:57;;;;;;;3.60;3.30;;;4.10;99.90;;;;;;4936461;29;20213;-82
2022/12/01 05:34:23;;;;;;;3.53;3.33;;;4.20;99.90;;;;;;4936013;29;20209;-83
2022/12/01 05:36:49;;;;;;;3.80;3.50;;;4.10;99.90;;;;;;4935423;29;20254;-82
2022/12/01 05:39:14;;;;;;;3.90;3.40;;;4.20;99.90;;;;;;4949752;29;20224;-81
2022/12/01 05:41:40;;;;;;;3.70;3.40;;;4.20;99.90;;;;;;4928606;29;20657;-81
2022/12/01 05:44:06;;;;;;;7.20;4.50;;;4.20;99.90;;;;;;4918886;29;20192;-82
2022/12/01 05:46:32;;;;;;;4.93;3.40;;;4.20;99.90;;;;;;4939782;29;20276;-83
2022/12/01 05:48:57;;;;;;;3.40;3.13;;;4.20;99.90;;;;;;4935997;29;20209;-83
2022/12/01 05:51:23;;;;;;;3.73;3.43;;;4.20;99.90;;;;;;4935712;29;20178;-83
2022/12/01 05:53:52;;;;;;;4.10;3.60;;;4.20;99.90;;;;;;4934858;29;20266;-83
2022/12/01 05:56:18;;;;;;;3.40;3.10;;;4.10;99.90;;;;;;4936323;29;20191;-82
2022/12/01 05:58:43;;;;;;;4.37;3.50;;;4.10;99.90;;;;;;4935050;29;20205;-81
2022/12/01 06:01:09;;;;;;;5.67;3.70;;;4.10;99.90;;;;;;4938200;29;20267;-83
2022/12/01 06:03:35;;;;;;;4.67;3.93;;;4.00;99.90;;;;;;4935846;29;20184;-78
2022/12/01 06:06:01;;;;;;;4.10;3.80;;;4.00;99.90;;;;;;4935251;29;20311;-81
2022/12/01 06:08:32;;;;;;;4.37;3.97;;;4.10;99.90;;;;;;4936136;29;20526;-79
2022/12/01 06:11:15;;;;;;;4.13;3.73;;;4.10;99.90;;;;;;4919281;29;20181;-79
2022/12/01 06:13:41;;;;;;;4.30;4.00;;;4.10;99.90;;;;;;4919608;29;20657;-79
2022/12/01 06:16:07;;;;;;;3.70;3.40;;;4.00;99.90;;;;;;4918143;29;20211;-78
2022/12/01 06:18:35;;;;;;;4.30;3.90;;;4.00;99.90;;;;;;4903279;29;20239;-80
2022/12/01 06:21:01;;;;;;;3.93;3.63;;;4.10;99.90;;;;;;4921429;29;20297;-84
2022/12/01 06:23:27;;;;;;;4.47;4.07;;;4.10;99.90;;;;;;4921191;29;20225;-84
2022/12/01 06:25:53;;;;;;;3.77;3.50;;;4.20;99.90;;;;;;4932060;29;20201;-82
2022/12/01 06:28:19;;;;;;;4.03;3.73;;;4.20;99.90;;;;;;4921327;29;20582;-83
2022/12/01 06:30:45;;;;;;;4.03;3.73;;;4.20;99.90;;;;;;4921213;29;20267;-81
2022/12/01 06:33:11;;;;;;;4.27;3.90;;;4.20;99.90;;;;;;4920525;29;20304;-82
2022/12/01 06:35:37;;;;;;;4.93;4.40;;;4.10;99.90;;;;;;4919743;29;20208;-80
2022/12/01 06:38:03;;;;;;;4.30;3.90;;;4.10;99.90;;;;;;4919241;29;20665;-82
2022/12/01 06:40:29;;;;;;;4.87;4.23;;;4.10;99.90;;;;;;4920256;29;20184;-84
2022/12/01 06:42:57;;;;;;;4.57;4.17;;;4.10;99.90;;;;;;4926108;29;20191;-82
2022/12/01 06:45:23;;;;;;;6.63;5.07;;;4.20;99.90;;;;;;4919328;29;20235;-82
2022/12/01 06:47:53;;;;;;;5.43;4.57;;;4.20;99.90;;;;;;4917812;29;20637;-81
2022/12/01 06:50:19;;;;;;;9.57;7.40;;;4.20;99.90;;;;;;4919285;29;20651;-83
2022/12/01 06:52:44;;;;;;;4.57;4.10;;;4.20;99.90;;;;;;4919254;29;20284;-82
2022/12/01 06:55:10;;;;;;;4.80;4.40;;;4.30;99.90;;;;;;4918147;29;20192;-78
2022/12/01 06:57:37;;;;;;;4.93;4.23;;;4.40;99.90;;;;;;4901720;29;20196;-82
2022/12/01 07:00:03;;;;;;;5.43;4.93;;;4.60;99.90;;;;;;4918709;29;20232;-81
2022/12/01 07:02:29;;;;;;;5.57;4.50;;;4.60;99.90;;;;;;4901736;29;20217;-81
2022/12/01 07:04:55;;;;;;;4.70;4.30;;;4.50;99.90;;;;;;4919417;29;20271;-82
2022/12/01 07:07:21;;;;;;;4.97;4.50;;;4.60;99.90;;;;;;4918814;29;20181;-81
2022/12/01 07:09:48;;;;;;;4.30;3.90;;;4.50;99.90;;;;;;4920390;29;20191;-82
2022/12/01 07:12:14;;;;;;;4.57;4.17;;;4.60;99.90;;;;;;4919136;29;20212;-82
2022/12/01 07:14:41;;;;;;;4.30;4.00;;;4.60;99.90;;;;;;4921040;29;20181;-79
2022/12/01 07:17:08;;;;;;;4.33;3.70;;;4.60;99.90;;;;;;4921642;29;20202;-79
2022/12/01 07:19:35;;;;;;;4.60;4.10;;;4.50;99.90;;;;;;4906037;29;20194;-77
2022/12/01 07:22:01;;;;;;;3.97;3.67;;;4.50;99.90;;;;;;4920914;29;20269;-79
2022/12/01 07:24:27;;;;;;;3.90;3.60;;;4.50;99.90;;;;;;4902621;29;20537;-80
2022/12/01 07:26:52;;;;;;;4.47;4.07;;;4.60;99.90;;;;;;4919281;29;20184;-80
2022/12/01 07:29:18;;;;;;;4.23;3.93;;;4.50;99.90;;;;;;4923473;29;20275;-80
2022/12/01 07:31:44;;;;;;;4.33;3.83;;;4.50;99.90;;;;;;4924209;29;20196;-82
2022/12/01 07:34:14;;;;;;;3.90;3.60;;;4.60;99.90;;;;;;4920394;29;20179;-80
2022/12/01 07:36:39;;;;;;;6.37;5.13;;;4.60;99.90;;;;;;4918975;29;20280;-82
2022/12/01 07:39:07;;;;;;;4.83;4.40;;;4.70;99.90;;;;;;4919506;29;20187;-84
2022/12/01 07:41:34;;;;;;;7.87;3.60;;;4.70;99.90;;;;;;4921862;29;20177;-82
2022/12/01 07:44:00;;;;;;;4.83;3.97;;;4.70;99.90;;;;;;4923833;29;20172;-82
2022/12/01 07:46:27;;;;;;;3.80;3.50;;;4.70;99.90;;;;;;4920189;29;20184;-84
2022/12/01 07:48:54;;;;;;;4.07;3.70;;;4.70;99.90;;;;;;4918663;29;20653;-83
2022/12/01 07:51:22;;;;;;;4.50;4.10;;;4.60;99.90;;;;;;4920734;29;20187;-83
2022/12/01 07:53:49;;;;;;;3.27;2.97;;;4.70;99.90;;;;;;4913744;29;20565;-84
2022/12/01 07:56:16;;;;;;;3.37;3.07;;;4.70;99.90;;;;;;4918970;29;20216;-79
2022/12/01 07:58:42;;;;;;;3.53;3.23;;;4.60;99.90;;;;;;4918648;29;20192;-82
2022/12/01 08:01:12;;;;;;;3.07;2.87;;;4.60;99.90;;;;;;4918429;29;20281;-81
2022/12/01 08:03:38;;;;;;;3.40;3.10;;;4.70;99.90;;;;;;4901216;29;20199;-82
2022/12/01 08:06:06;;;;;;;3.00;2.80;;;4.70;99.90;;;;;;4919695;29;20169;-83
2022/12/01 08:08:33;;;;;;;3.73;3.43;;;4.60;99.90;;;;;;4902001;29;20184;-83
2022/12/01 08:11:03;;;;;;;3.37;3.00;;;4.70;99.90;;;;;;4918420;29;20183;-85
2022/12/01 08:13:29;;;;;;;3.23;3.03;;;4.70;99.90;;;;;;4917829;29;20209;-78
2022/12/01 08:15:56;;;;;;;5.53;3.43;;;4.60;99.90;;;;;;4917703;29;20201;-82
2022/12/01 08:18:22;;;;;;;3.97;3.10;;;4.60;99.90;;;;;;4901062;29;20181;-82
2022/12/01 08:20:50;;;;;;;3.63;3.33;;;4.50;99.90;;;;;;4918369;29;20176;-83
2022/12/01 08:23:15;;;;;;;4.63;3.47;;;4.50;99.90;;;;;;4901115;29;20181;-83
2022/12/01 08:25:41;;;;;;;4.10;3.80;;;4.50;99.90;;;;;;4917956;29;20183;-83
2022/12/01 08:28:07;;;;;;;7.17;4.00;;;4.50;99.90;;;;;;4920221;29;20177;-82
2022/12/01 08:30:33;;;;;;;5.27;4.77;;;4.40;99.90;;;;;;4917691;29;20836;-83
2022/12/01 08:32:58;;;;;;;4.17;3.87;;;4.50;99.90;;;;;;4917647;29;20219;-84
2022/12/01 08:35:25;;;;;;;4.90;4.40;;;4.50;99.90;;;;;;4917746;29;20207;-83
2022/12/01 08:37:52;;;;;;;5.57;5.07;;;4.30;99.90;;;;;;4917423;29;20189;-84
2022/12/01 08:40:18;;;;;;;5.13;4.50;;;4.30;99.90;;;;;;4917706;29;20175;-83
2022/12/01 08:42:44;;;;;;;4.93;4.47;;;4.30;99.90;;;;;;4917617;29;20584;-83
2022/12/01 08:45:13;;;;;;;5.87;5.27;;;4.40;99.90;;;;;;4917314;29;20169;-80
2022/12/01 08:47:39;;;;;;;5.30;4.80;;;4.40;99.90;;;;;;4917697;29;20188;-84
2022/12/01 08:50:05;;;;;;;5.50;5.03;;;4.40;99.90;;;;;;4917857;29;20200;-82
2022/12/01 08:52:32;;;;;;;6.23;5.63;;;4.40;99.90;;;;;;4917188;29;20302;-78
2022/12/01 08:55:02;;;;;;;5.27;4.87;;;4.50;99.90;;;;;;4917497;29;20180;-82
2022/12/01 08:57:29;;;;;;;6.00;4.90;;;4.60;99.90;;;;;;4901615;29;20544;-80
2022/12/01 08:59:55;;;;;;;5.60;5.07;;;4.50;99.90;;;;;;4919230;29;20715;-82
2022/12/01 09:02:21;;;;;;;5.70;5.10;;;4.50;99.90;;;;;;4917744;29;20179;-80
2022/12/01 09:04:48;;;;;;;5.57;4.57;;;4.60;99.90;;;;;;4917544;29;20182;-79
2022/12/01 09:07:15;;;;;;;5.80;4.80;;;4.50;99.90;;;;;;4919391;29;20540;-78
2022/12/01 09:09:43;;;;;;;4.93;4.17;;;4.60;99.90;;;;;;4923788;29;20231;-82
2022/12/01 09:12:10;;;;;;;4.50;4.13;;;4.50;99.90;;;;;;4918816;29;20202;-81
2022/12/01 09:14:40;;;;;;;5.10;4.70;;;4.50;99.90;;;;;;4920451;29;20527;-85
2022/12/01 09:17:08;;;;;;;5.13;4.73;;;4.50;99.90;;;;;;4920200;29;20174;-83
2022/12/01 09:19:34;;;;;;;5.53;4.97;;;4.50;99.90;;;;;;4920466;29;20196;-78
2022/12/01 09:22:01;;;;;;;4.90;4.50;;;4.50;99.90;;;;;;4922956;29;20177;-83
2022/12/01 09:24:30;;;;;;;5.53;5.03;;;4.50;99.90;;;;;;4917402;29;20184;-83
2022/12/01 09:26:59;;;;;;;5.37;4.87;;;4.50;99.90;;;;;;4917442;29;20193;-80
2022/12/01 09:29:25;;;;;;;4.70;4.30;;;4.50;99.90;;;;;;4917323;29;20735;-83
2022/12/01 09:31:57;;;;;;;5.30;4.80;;;4.50;99.90;;;;;;4917655;29;20239;-84
2022/12/01 09:34:24;;;;;;;5.20;4.70;;;4.60;99.90;;;;;;4917985;29;20173;-84
2022/12/01 09:36:54;;;;;;;5.00;4.60;;;4.60;99.90;;;;;;4916949;29;20187;-84
2022/12/01 09:39:20;;;;;;;6.27;5.67;;;4.70;99.90;;;;;;4916904;29;20238;-81
2022/12/01 09:41:54;;;;;;;5.50;5.00;;;4.70;99.90;;;;;;4917022;29;20300;-83
2022/12/01 09:44:25;;;;;;;5.43;4.20;;;4.70;99.90;;;;;;4916902;29;20184;-83
2022/12/01 09:46:56;;;;;;;5.63;4.50;;;4.80;99.90;;;;;;4917447;29;20586;-84
2022/12/01 09:49:41;;;;;;;5.27;4.10;;;4.80;99.90;;;;;;4918365;29;20219;-84
2022/12/01 09:52:11;;;;;;;4.67;4.27;;;4.80;99.90;;;;;;4921554;29;20561;-85
2022/12/01 09:54:37;;;;;;;4.27;3.90;;;4.80;99.90;;;;;;4920821;29;20170;-83
2022/12/01 09:57:03;;;;;;;4.40;4.00;;;4.80;99.90;;;;;;4920701;29;20178;-84
2022/12/01 09:59:41;;;;;;;4.87;4.40;;;4.90;99.90;;;;;;4920455;29;20219;-85
2022/12/01 10:02:24;;;;;;;4.63;4.10;;;5.00;99.90;;;;;;4920590;29;20536;-80
2022/12/01 10:04:53;;;;;;;5.40;4.03;;;5.00;99.90;;;;;;4920251;29;20560;-84
2022/12/01 10:07:36;;;;;;;4.17;3.70;;;4.90;99.90;;;;;;4920236;29;20286;-83
2022/12/01 10:10:12;;;;;;;3.80;3.50;;;4.90;99.90;;;;;;4920541;29;20164;-81
2022/12/01 10:12:42;;;;;;;4.20;3.80;;;5.00;99.90;;;;;;4926367;29;20798;-81
2022/12/01 10:15:24;;;;;;;4.63;4.23;;;4.90;99.90;;;;;;4920618;29;20676;-83
2022/12/01 10:18:03;;;;;;;4.30;3.97;;;4.90;99.90;;;;;;4920465;29;20166;-82
2022/12/01 10:20:47;;;;;;;3.80;3.43;;;4.90;99.90;;;;;;4920116;29;20280;-85
2022/12/01 10:23:27;;;;;;;3.90;3.50;;;4.80;99.90;;;;;;4920217;29;20173;-82
2022/12/01 10:26:27;;;;;;;24.03;14.37;;;4.80;99.90;;;;;;4920027;29;20173;-82
2022/12/01 10:29:20;;;;;;;9.80;7.20;;;4.70;99.90;;;;;;4884281;29;20201;-83
2022/12/01 10:31:57;;;;;;;5.17;4.20;;;4.60;99.90;;;;;;4919692;29;20254;-81
2022/12/01 10:34:40;;;;;;;4.70;4.30;;;4.70;99.90;;;;;;4921351;29;20188;-82
2022/12/01 10:37:24;;;;;;;4.00;3.70;;;4.60;99.90;;;;;;4931532;29;20528;-79
2022/12/01 10:39:52;;;;;;;4.73;3.90;;;4.60;99.90;;;;;;4923657;29;20259;-83
2022/12/01 10:42:33;;;;;;;3.87;3.57;;;4.60;99.90;;;;;;4920371;29;20187;-85
2022/12/01 10:45:03;;;;;;;3.60;3.30;;;4.40;99.90;;;;;;4920352;29;20174;-80
2022/12/01 10:47:30;;;;;;;4.57;4.13;;;4.50;99.90;;;;;;4923203;29;20179;-78
2022/12/01 10:49:57;;;;;;;4.43;4.10;;;4.50;99.90;;;;;;4922179;29;20177;-80
2022/12/01 10:52:33;;;;;;;5.43;4.27;;;4.50;99.90;;;;;;4932737;29;20221;-82
2022/12/01 10:55:01;;;;;;;4.60;4.20;;;4.60;99.90;;;;;;4927681;29;20617;-82
2022/12/01 10:57:30;;;;;;;4.37;3.97;;;4.60;99.90;;;;;;4903287;29;20189;-83
2022/12/01 11:00:01;;;;;;;4.23;3.87;;;4.60;99.90;;;;;;4927309;29;20240;-80
2022/12/01 11:02:29;;;;;;;4.07;3.77;;;4.70;99.90;;;;;;4903202;29;20525;-80
2022/12/01 11:05:02;;;;;;;4.33;4.00;;;4.70;99.90;;;;;;4919304;29;20638;-83
2022/12/01 11:07:41;;;;;;;4.13;3.73;;;4.80;99.90;;;;;;4919269;29;20180;-82
2022/12/01 11:10:16;;;;;;;4.60;4.10;;;4.90;99.90;;;;;;4919124;29;20200;-82
2022/12/01 11:12:44;;;;;;;4.10;3.80;;;5.00;99.90;;;;;;4919116;29;20668;-81
2022/12/01 11:15:33;;;;;;;4.07;3.77;;;4.90;99.90;;;;;;4922061;29;20196;-84
2022/12/01 11:18:30;;;;;;;4.40;4.00;;;4.90;99.90;;;;;;4919561;29;20711;-79
2022/12/01 11:21:26;;;;;;;4.63;4.30;;;4.90;99.90;;;;;;4919360;29;20655;-84
2022/12/01 11:23:54;;;;;;;4.00;3.70;;;4.80;99.90;;;;;;4911081;29;20227;-85
2022/12/01 11:26:25;;;;;;;4.33;4.03;;;4.80;99.90;;;;;;4920569;29;20176;-83
2022/12/01 11:28:57;;;;;;;4.27;3.87;;;4.80;99.90;;;;;;4919543;29;20173;-83
2022/12/01 11:31:41;;;;;;;4.33;3.93;;;4.80;99.90;;;;;;4919538;29;20168;-84
2022/12/01 11:34:18;;;;;;;4.53;4.13;;;4.80;99.90;;;;;;4920208;29;20233;-83
2022/12/01 11:37:08;;;;;;;3.97;3.67;;;4.80;99.90;;;;;;4903324;29;20187;-82
2022/12/01 11:39:40;;;;;;;4.20;3.90;;;4.80;99.90;;;;;;4918911;29;20162;-84
2022/12/01 11:42:29;;;;;;;5.00;3.80;;;4.80;99.90;;;;;;4918711;29;20178;-82
2022/12/01 11:45:00;;;;;;;3.70;3.40;;;4.80;99.90;;;;;;4918699;29;20183;-85
2022/12/01 11:47:27;;;;;;;4.23;3.83;;;4.80;99.90;;;;;;4917241;29;20388;-83
2022/12/01 11:50:01;;;;;;;4.07;3.70;;;4.80;99.90;;;;;;4917180;29;20183;-83
2022/12/01 11:52:35;;;;;;;4.33;3.93;;;4.80;99.90;;;;;;4901548;29;20208;-82
2022/12/01 11:55:10;;;;;;;4.43;4.07;;;4.80;99.90;;;;;;4918702;29;20153;-82
2022/12/01 11:57:39;;;;;;;5.23;4.70;;;4.70;99.90;;;;;;4918165;29;20644;-82
2022/12/01 12:00:12;;;;;;;4.67;4.27;;;4.70;99.90;;;;;;4917923;29;20239;-82
2022/12/01 12:03:02;;;;;;;4.10;3.80;;;4.80;99.90;;;;;;4918158;29;20541;-84
2022/12/01 12:06:07;;;;;;;5.07;4.57;;;4.90;99.90;;;;;;4894791;29;20189;-83
2022/12/01 12:08:57;;;;;;;5.90;4.17;;;4.90;99.90;;;;;;4918861;29;20530;-80
2022/12/01 12:12:01;;;;;;;4.77;4.37;;;5.00;99.90;;;;;;4921744;29;20165;-81
2022/12/01 12:15:16;;;;;;;4.27;3.90;;;5.00;99.90;;;;;;4928067;29;20178;-81
2022/12/01 12:17:58;;;;;;;5.40;4.20;;;5.10;99.90;;;;;;4842262;29;20241;-83
2022/12/01 12:21:05;;;;;;;4.57;4.17;;;5.10;99.90;;;;;;4842001;29;20191;-81
2022/12/01 12:23:51;;;;;;;4.70;4.30;;;5.10;99.90;;;;;;4841635;29;20280;-81
2022/12/01 12:26:19;;;;;;;4.67;4.23;;;5.10;99.90;;;;;;4841224;29;20337;-79
2022/12/01 12:29:41;;;;;;;4.47;4.17;;;5.10;99.90;;;;;;4841677;29;20615;-80
2022/12/01 12:32:57;;;;;;;4.80;4.20;;;5.10;99.90;;;;;;4841521;29;20311;-80
2022/12/01 12:35:41;;;;;;;4.67;4.30;;;5.10;99.90;;;;;;4805184;29;20272;-80
2022/12/01 12:38:40;;;;;;;6.90;4.17;;;5.10;99.90;;;;;;4808899;29;20185;-82
2022/12/01 12:41:15;;;;;;;5.37;4.73;;;5.00;99.90;;;;;;4843899;29;20226;-81
2022/12/01 12:43:47;;;;;;;4.70;4.30;;;5.10;99.90;;;;;;4846305;29;20275;-81
2022/12/01 12:46:38;;;;;;;4.93;4.53;;;5.10;99.90;;;;;;4849154;29;20216;-79
2022/12/01 12:49:36;;;;;;;6.57;4.60;;;5.10;99.90;;;;;;4841952;29;20182;-79
2022/12/01 12:52:08;;;;;;;4.63;4.13;;;5.00;99.90;;;;;;4840581;29;20298;-79
2022/12/01 12:54:56;;;;;;;5.07;4.67;;;5.00;99.90;;;;;;4917316;29;20176;-80
2022/12/01 12:57:51;;;;;;;5.70;4.60;;;5.00;99.90;;;;;;4917165;29;20188;-82
2022/12/01 13:00:25;;;;;;;4.80;4.40;;;5.00;99.90;;;;;;4849356;29;20322;-81
2022/12/01 13:03:26;;;;;;;5.50;4.77;;;5.00;99.90;;;;;;4917199;29;20186;-81
2022/12/01 13:06:02;;;;;;;4.73;4.33;;;5.00;99.90;;;;;;4892778;29;20183;-80
2022/12/01 13:08:51;;;;;;;5.73;5.23;;;5.00;99.90;;;;;;4917296;29;20169;-82
2022/12/01 13:11:21;;;;;;;5.07;4.63;;;5.00;99.90;;;;;;4916524;29;20193;-84
2022/12/01 13:14:05;;;;;;;5.63;5.00;;;4.90;99.90;;;;;;4917423;29;20267;-79
2022/12/01 13:16:41;;;;;;;5.37;4.87;;;4.90;99.90;;;;;;4900278;29;20183;-84
2022/12/01 13:19:34;;;;;;;4.80;4.40;;;4.90;99.90;;;;;;4917410;29;20180;-83
2022/12/01 13:22:01;;;;;;;5.53;5.03;;;4.90;99.90;;;;;;4916987;29;20167;-84
2022/12/01 13:24:29;;;;;;;5.37;4.87;;;4.90;99.90;;;;;;4915569;29;20216;-83
2022/12/01 13:27:22;;;;;;;5.10;4.70;;;4.80;99.90;;;;;;4916600;29;20184;-84
2022/12/01 13:29:53;;;;;;;5.60;5.10;;;4.80;99.90;;;;;;4929029;29;20173;-83